Time;durP1;ratioP1;P1;durP2;ratioP2;P2;SDS_P1;SDS_P2;PMS_P1;PMS_P2;Temp;Humidity;BMP_temperature;BMP_pressure;BME280_temperature;BME280_humidity;BME280_pressure;Samples;Min_cycle;Max_cycle;Signal;HPM_P1;HPM_P2
2022/11/22 00:00:09;;;;;;;46.13;15.27;;;3.00;99.90;;;0.74;100.00;99244.41;10482511;28;20057;-83
2022/11/22 00:05:12;;;;;;;31.23;12.13;;;3.10;99.90;;;0.79;100.00;99233.56;10503218;28;20106;-84
2022/11/22 00:10:15;;;;;;;50.33;11.93;;;3.20;99.90;;;0.84;100.00;99226.16;10481105;28;20151;-83
2022/11/22 00:15:19;;;;;;;47.30;12.80;;;3.30;99.90;;;0.92;100.00;99230.72;10487394;28;21905;-83
2022/11/22 00:20:22;;;;;;;52.80;14.80;;;3.30;99.90;;;0.99;100.00;99230.06;10471317;28;20149;-83
2022/11/22 00:25:25;;;;;;;64.80;16.97;;;3.40;99.90;;;1.05;100.00;99239.19;10485890;28;20490;-84
2022/11/22 00:30:28;;;;;;;43.03;12.50;;;3.50;99.90;;;1.07;100.00;99232.03;10482758;28;20053;-84
2022/11/22 00:35:31;;;;;;;32.30;10.37;;;3.50;99.90;;;1.11;100.00;99236.03;10502768;28;20065;-84
2022/11/22 00:40:34;;;;;;;45.57;13.80;;;3.50;99.90;;;1.15;100.00;99231.41;10466175;28;20422;-83
2022/11/22 00:45:40;;;;;;;37.07;12.07;;;3.60;99.90;;;1.17;100.00;99232.06;10501856;28;20564;-83
2022/11/22 00:50:43;;;;;;;50.93;11.80;;;3.60;99.90;;;1.21;100.00;99217.78;10503852;28;20061;-83
2022/11/22 00:55:45;;;;;;;52.83;13.17;;;3.70;99.90;;;1.26;100.00;99221.66;10484630;28;20111;-83
2022/11/22 01:00:49;;;;;;;48.87;12.23;;;3.70;99.90;;;1.30;100.00;99222.22;10526824;28;20068;-84
2022/11/22 01:05:58;;;;;;;47.47;12.50;;;3.70;99.90;;;1.35;100.00;99220.03;10519455;28;20056;-84
2022/11/22 01:11:01;;;;;;;38.30;10.90;;;3.70;99.90;;;1.37;100.00;99209.41;10520951;28;20061;-83
2022/11/22 01:16:08;;;;;;;40.63;12.40;;;3.80;99.90;;;1.41;100.00;99208.19;10516733;28;20061;-84
2022/11/22 01:21:11;;;;;;;34.30;12.00;;;3.80;99.90;;;1.44;100.00;99200.91;10487720;28;20064;-84
2022/11/22 01:26:14;;;;;;;66.50;12.87;;;3.90;99.90;;;1.51;100.00;99209.88;10513922;28;20056;-83
2022/11/22 01:31:17;;;;;;;39.50;13.00;;;3.90;99.90;;;1.55;100.00;99211.25;10481149;28;20063;-83
2022/11/22 01:36:19;;;;;;;43.93;12.13;;;4.00;99.90;;;1.60;100.00;99216.09;10482689;28;20060;-83
2022/11/22 01:41:23;;;;;;;43.37;12.27;;;4.00;99.90;;;1.66;100.00;99212.09;10486784;28;20455;-83
2022/11/22 01:46:36;;;;;;;48.57;13.27;;;4.00;99.90;;;1.69;100.00;99207.44;10496699;28;20138;-83
2022/11/22 01:51:47;;;;;;;32.70;10.77;;;4.10;99.90;;;1.72;100.00;99209.78;10518494;28;20053;-83
2022/11/22 01:56:57;;;;;;;33.33;10.43;;;4.10;99.90;;;1.76;100.00;99212.97;10500219;28;20158;-83
2022/11/22 02:02:02;;;;;;;57.47;11.97;;;4.20;99.90;;;1.78;100.00;99211.03;10511484;28;20524;-82
2022/11/22 02:07:31;;;;;;;56.47;11.97;;;4.20;99.90;;;1.81;100.00;99205.53;10475606;28;20509;-82
2022/11/22 02:12:35;;;;;;;36.70;11.43;;;4.30;99.90;;;1.79;100.00;99197.78;10480857;28;20115;-82
2022/11/22 02:17:38;;;;;;;38.10;10.87;;;4.30;99.90;;;1.84;100.00;99198.19;10495861;28;20350;-84
2022/11/22 02:23:05;;;;;;;31.83;10.70;;;4.30;99.90;;;1.88;100.00;99206.63;10468041;28;20258;-83
2022/11/22 02:28:12;;;;;;;36.80;9.87;;;4.30;99.90;;;1.88;100.00;99201.38;10495911;28;20061;-84
2022/11/22 02:33:15;;;;;;;28.23;9.80;;;4.30;99.90;;;1.89;100.00;99195.19;10494620;28;20064;-83
2022/11/22 02:38:23;;;;;;;29.17;8.97;;;4.30;99.90;;;1.87;100.00;99182.22;10500322;28;20065;-83
2022/11/22 02:43:31;;;;;;;43.77;10.53;;;4.30;99.90;;;1.86;100.00;99180.56;10470573;28;20092;-84
2022/11/22 02:48:43;;;;;;;29.87;8.30;;;4.30;99.90;;;1.85;100.00;99167.59;10514166;28;20064;-83
2022/11/22 02:53:48;;;;;;;;;;;4.30;99.90;;;1.85;100.00;99171.03;10458923;28;20068;-84
2022/11/22 02:58:51;;;;;;;31.00;7.37;;;4.30;99.90;;;1.90;100.00;99190.75;10499336;28;19932;-84
2022/11/22 03:03:54;;;;;;;27.97;7.63;;;4.30;99.90;;;1.87;100.00;99179.59;10468742;28;20057;-83
2022/11/22 03:08:57;;;;;;;29.70;8.57;;;4.30;99.90;;;1.90;100.00;99167.19;10496865;28;20103;-84
2022/11/22 03:14:00;;;;;;;28.90;7.50;;;4.30;99.90;;;1.94;100.00;99174.63;10512145;28;20092;-84
2022/11/22 03:19:03;;;;;;;28.13;7.57;;;4.40;99.90;;;1.97;100.00;99178.75;10512752;28;20064;-84
2022/11/22 03:24:07;;;;;;;32.20;9.00;;;4.40;99.90;;;2.02;100.00;99172.16;10484406;28;20068;-84
2022/11/22 03:29:10;;;;;;;25.30;7.93;;;4.50;99.90;;;2.04;100.00;99170.22;10499378;28;20136;-84
2022/11/22 03:34:14;;;;;;;34.80;8.70;;;4.50;99.90;;;2.01;100.00;99160.00;10503234;28;20456;-84
2022/11/22 03:39:17;;;;;;;33.37;8.33;;;4.50;99.90;;;2.04;100.00;99170.22;10484024;28;20586;-84
2022/11/22 03:44:20;;;;;;;29.47;7.40;;;4.50;99.90;;;2.04;100.00;99153.66;10499931;28;20057;-84
2022/11/22 03:49:23;;;;;;;32.77;8.73;;;4.50;99.90;;;2.04;100.00;99154.50;10486981;28;20057;-84
2022/11/22 03:54:25;;;;;;;36.60;7.97;;;4.50;99.90;;;2.08;100.00;99162.91;10472884;28;20140;-84
2022/11/22 03:59:29;;;;;;;23.73;7.20;;;4.50;99.90;;;2.11;100.00;99165.25;10499863;28;20092;-83
2022/11/22 04:04:32;;;;;;;47.47;8.67;;;4.50;99.90;;;2.11;100.00;99157.41;10498975;28;20120;-84
2022/11/22 04:09:35;;;;;;;33.27;8.83;;;4.50;99.90;;;2.14;100.00;99150.06;10520944;28;20052;-83
2022/11/22 04:25:21;;;;;;;33.88;8.90;;;4.60;99.90;;;2.24;100.00;99147.44;10471130;28;20065;-84
2022/11/22 04:35:48;;;;;;;34.40;8.93;;;4.70;99.90;;;2.28;100.00;99142.72;10472005;28;20457;-83
2022/11/22 04:40:51;;;;;;;43.43;11.50;;;4.70;99.90;;;2.30;100.00;99135.56;10489046;28;20060;-84
2022/11/22 04:45:54;;;;;;;39.03;10.27;;;4.70;99.90;;;2.33;100.00;99138.72;10515585;28;20064;-84
2022/11/22 04:56:19;;;;;;;29.83;11.38;;;4.70;99.90;;;2.30;100.00;99151.31;10501023;28;20065;-83
2022/11/22 05:01:22;;;;;;;25.37;10.57;;;4.70;99.90;;;2.29;100.00;99147.84;10499745;28;20521;-84
2022/11/22 05:06:25;;;;;;;19.83;8.07;;;4.70;99.90;;;2.26;100.00;99157.78;10513208;28;20061;-83
2022/11/22 05:11:29;;;;;;;19.93;9.30;;;4.60;99.90;;;2.16;100.00;99163.06;10480076;28;20061;-81
2022/11/22 05:16:31;;;;;;;14.87;7.43;;;4.50;99.90;;;2.08;100.00;99176.00;10485847;28;20049;-79
2022/11/22 05:21:36;;;;;;;15.33;7.07;;;4.50;99.90;;;1.97;100.00;99187.44;10523966;28;20060;-79
2022/11/22 05:26:39;;;;;;;14.07;6.67;;;4.40;99.90;;;1.86;100.00;99190.22;10501602;28;20065;-80
2022/11/22 05:31:42;;;;;;;14.57;6.03;;;4.30;99.90;;;1.73;100.00;99182.59;10534365;28;20057;-80
2022/11/22 05:36:53;;;;;;;15.20;7.00;;;4.20;99.90;;;1.55;100.00;99202.56;10517121;28;20394;-80
2022/11/22 05:41:56;;;;;;;18.73;8.03;;;4.00;99.90;;;1.40;100.00;99201.31;10463896;28;20107;-80
2022/11/22 05:46:59;;;;;;;28.77;12.67;;;3.80;99.90;;;1.29;100.00;99208.28;10487699;28;20513;-80
2022/11/22 05:52:03;;;;;;;17.20;8.17;;;3.80;99.90;;;1.16;100.00;99192.00;10462308;28;20115;-80
2022/11/22 05:57:05;;;;;;;16.97;7.33;;;3.60;99.90;;;1.01;100.00;99190.69;10497420;28;20071;-80
2022/11/22 06:02:09;;;;;;;28.80;13.97;;;3.50;99.90;;;0.95;100.00;99201.69;10494324;28;20096;-80
2022/11/22 06:07:12;;;;;;;19.23;8.43;;;3.40;99.90;;;0.94;100.00;99203.47;10473441;28;20080;-79
2022/11/22 06:12:15;;;;;;;20.17;8.30;;;3.40;99.90;;;0.97;100.00;99218.09;10498415;28;20091;-80
2022/11/22 06:17:18;;;;;;;19.83;8.73;;;3.40;99.90;;;0.99;100.00;99213.56;10517473;28;20061;-80
2022/11/22 06:22:21;;;;;;;18.73;8.30;;;3.40;99.90;;;1.01;100.00;99222.09;10512954;28;20106;-80
2022/11/22 06:27:24;;;;;;;16.07;8.00;;;3.40;99.90;;;1.00;100.00;99212.59;10466462;28;20063;-81
2022/11/22 06:32:27;;;;;;;23.30;8.80;;;3.50;99.90;;;1.03;100.00;99228.88;10498028;28;20068;-80
2022/11/22 06:37:30;;;;;;;23.93;10.07;;;3.50;99.90;;;1.09;100.00;99224.06;10474872;28;20398;-80
2022/11/22 06:42:33;;;;;;;34.07;12.90;;;3.50;99.90;;;1.36;100.00;99221.66;10495898;28;20499;-80
2022/11/22 06:47:36;;;;;;;24.97;11.20;;;3.60;99.90;;;1.41;100.00;99224.72;10469248;28;20057;-80
2022/11/22 06:52:39;;;;;;;25.07;11.23;;;3.60;99.90;;;1.40;100.00;99220.47;10496454;28;20520;-80
2022/11/22 06:57:42;;;;;;;22.03;10.10;;;3.70;99.90;;;1.36;100.00;99215.63;10490627;28;20068;-80
2022/11/22 07:02:44;;;;;;;22.23;10.33;;;3.70;99.90;;;1.32;100.00;99218.50;10535023;28;20064;-80
2022/11/22 07:07:47;;;;;;;21.13;10.30;;;3.70;99.90;;;1.40;100.00;99222.25;10500738;28;20057;-80
2022/11/22 07:12:51;;;;;;;27.03;12.70;;;3.80;99.90;;;1.47;100.00;99218.97;10541220;28;20072;-80
2022/11/22 07:17:54;;;;;;;25.97;12.57;;;3.80;99.90;;;1.47;100.00;99223.38;10510208;28;20053;-80
2022/11/22 07:22:57;;;;;;;35.53;17.00;;;3.90;99.90;;;1.47;100.00;99208.47;10488812;28;20499;-80
2022/11/22 07:28:00;;;;;;;37.30;19.33;;;3.90;99.90;;;1.52;100.00;99216.75;10540711;28;20539;-80
2022/11/22 07:33:03;;;;;;;24.37;13.23;;;3.90;99.90;;;1.58;100.00;99223.25;10505690;28;20512;-80
2022/11/22 07:38:06;;;;;;;25.30;12.23;;;3.90;99.90;;;1.70;100.00;99219.56;10489312;28;20061;-80
2022/11/22 07:43:09;;;;;;;21.07;10.00;;;4.10;99.90;;;1.81;100.00;99219.44;10540039;28;20126;-80
2022/11/22 07:48:13;;;;;;;29.23;14.90;;;4.20;99.90;;;1.91;100.00;99226.47;10495892;28;20566;-80
2022/11/22 07:53:16;;;;;;;26.70;12.93;;;4.30;99.90;;;1.95;100.00;99223.44;10488188;28;20064;-80
2022/11/22 07:58:20;;;;;;;52.27;33.43;;;4.40;99.90;;;2.04;100.00;99212.16;10505646;28;20425;-80
2022/11/22 08:03:23;;;;;;;22.40;10.80;;;4.40;99.90;;;2.10;100.00;99203.75;10481008;28;20053;-80
2022/11/22 08:08:31;;;;;;;26.93;14.20;;;4.50;99.90;;;2.15;100.00;99200.69;10504010;28;20055;-80
2022/11/22 08:13:35;;;;;;;25.20;12.23;;;4.50;99.90;;;2.23;100.00;99203.47;10521018;28;20451;-80
2022/11/22 08:18:38;;;;;;;22.13;11.40;;;4.60;99.90;;;2.32;100.00;99210.47;10469128;28;20057;-80
2022/11/22 08:23:43;;;;;;;20.00;10.50;;;4.70;99.90;;;2.37;100.00;99210.88;10503969;28;20084;-80
2022/11/22 08:28:46;;;;;;;17.60;8.80;;;4.80;99.90;;;2.32;100.00;99207.03;10487724;28;20428;-80
2022/11/22 08:33:52;;;;;;;21.90;11.17;;;4.70;99.90;;;2.34;100.00;99199.84;10504425;28;20064;-79
2022/11/22 08:38:55;;;;;;;17.80;9.57;;;4.70;99.90;;;2.33;100.00;99200.81;10531326;28;20057;-80
2022/11/22 08:43:58;;;;;;;27.70;13.30;;;4.70;99.90;;;2.40;100.00;99213.25;10504310;28;20061;-80
2022/11/22 08:49:05;;;;;;;57.67;23.83;;;4.80;99.90;;;2.45;100.00;99214.59;10500328;28;20134;-80
2022/11/22 08:54:07;;;;;;;63.73;26.63;;;4.80;99.90;;;2.57;100.00;99214.31;10518976;28;20067;-80
2022/11/22 08:59:10;;;;;;;38.27;16.37;;;4.90;99.90;;;2.65;100.00;99211.00;10478032;28;20061;-80
2022/11/22 09:04:13;;;;;;;27.17;13.43;;;5.00;99.90;;;2.74;100.00;99210.13;10490690;28;20061;-80
2022/11/22 09:09:16;;;;;;;26.47;13.07;;;5.10;99.90;;;2.83;100.00;99198.78;10467434;28;20111;-80
2022/11/22 09:14:39;;;;;;;25.53;12.87;;;5.20;99.90;;;2.87;100.00;99194.06;10488994;28;20056;-80
2022/11/22 09:19:43;;;;;;;23.17;11.83;;;5.20;99.90;;;2.98;100.00;99200.94;10484829;28;20053;-80
2022/11/22 09:24:45;;;;;;;17.53;9.50;;;5.40;99.90;;;3.06;100.00;99187.91;10486181;28;20475;-80
2022/11/22 09:29:48;;;;;;;22.00;9.47;;;5.40;99.90;;;3.18;100.00;99182.38;10443976;28;20112;-80
2022/11/22 09:34:52;;;;;;;18.03;9.17;;;5.50;99.90;;;3.26;100.00;99192.13;10503738;28;20056;-77
2022/11/22 09:39:55;;;;;;;17.10;8.60;;;5.60;99.90;;;3.33;100.00;99181.88;10452654;28;20064;-77
2022/11/22 09:45:32;;;;;;;19.20;10.53;;;5.70;99.90;;;3.29;100.00;99175.25;10500236;28;20091;-80
2022/11/22 09:51:05;;;;;;;38.30;24.73;;;5.60;99.90;;;3.31;100.00;99161.00;10488462;28;20143;-80
2022/11/22 09:56:11;;;;;;;;;;;5.70;99.90;;;3.27;100.00;99156.19;10479018;28;20065;-80
2022/11/22 10:02:15;;;;;;;22.63;13.37;;;5.60;99.90;;;3.29;100.00;99156.88;10459991;28;19982;-80
2022/11/22 10:07:39;;;;;;;59.27;33.80;;;5.60;99.90;;;3.36;100.00;99127.28;10477285;28;20111;-80
2022/11/22 10:13:05;;;;;;;23.93;10.53;;;5.70;99.90;;;3.54;100.00;99129.06;10518959;28;20053;-80
2022/11/22 10:18:39;;;;;;;30.33;15.30;;;5.90;99.90;;;3.73;100.00;99123.69;10479033;28;20402;-80
2022/11/22 10:23:43;;;;;;;25.87;12.97;;;6.10;99.90;;;3.86;100.00;99108.34;10494768;28;20068;-80
2022/11/22 10:29:14;;;;;;;25.73;13.83;;;6.20;99.90;;;3.92;100.00;99113.00;10516281;28;20061;-80
2022/11/22 10:34:44;;;;;;;25.73;11.53;;;6.30;99.90;;;3.96;100.00;99110.91;10517465;28;20084;-79
2022/11/22 10:39:57;;;;;;;29.30;13.73;;;6.30;99.90;;;4.00;100.00;99102.53;10443802;28;20460;-79
2022/11/22 10:45:23;;;;;;;26.77;14.37;;;6.40;99.90;;;4.07;100.00;99101.94;10505452;28;20079;-79
2022/11/22 10:51:17;;;;;;;31.10;15.50;;;6.40;99.90;;;4.13;100.00;99101.31;10487424;28;20057;-79
2022/11/22 10:56:41;;;;;;;26.73;14.40;;;6.50;99.90;;;4.12;100.00;99084.72;10421396;28;20089;-80
2022/11/22 11:02:15;;;;;;;23.10;11.43;;;6.50;99.90;;;4.11;100.00;99071.75;10459144;28;20056;-80
2022/11/22 11:07:22;;;;;;;24.87;11.73;;;6.50;99.90;;;4.01;100.00;99064.75;10507253;28;20061;-80
2022/11/22 11:12:46;;;;;;;341.60;156.63;;;6.40;99.90;;;3.92;100.00;99055.19;10524172;28;20093;-79
2022/11/22 11:18:02;;;;;;;80.60;40.13;;;6.30;99.90;;;3.93;100.00;99053.38;10524226;28;20068;-79
2022/11/22 11:23:08;;;;;;;156.30;95.63;;;6.30;99.90;;;3.94;100.00;99050.59;10490059;28;20126;-80
2022/11/22 11:28:28;;;;;;;47.37;26.77;;;6.30;99.90;;;3.92;100.00;99034.16;10540819;28;20089;-79
2022/11/22 11:33:36;;;;;;;31.73;18.20;;;6.30;99.90;;;3.97;100.00;99042.41;10465380;28;20148;-79
2022/11/22 11:38:39;;;;;;;22.33;11.90;;;6.30;99.90;;;4.02;100.00;99032.25;10449707;28;20053;-79
2022/11/22 11:43:44;;;;;;;24.63;12.77;;;6.40;99.90;;;4.06;100.00;99029.31;10526790;28;20057;-79
2022/11/22 11:49:14;;;;;;;25.30;13.20;;;6.40;99.90;;;4.13;100.00;99017.19;10522432;28;20527;-79
2022/11/22 11:54:45;;;;;;;24.47;12.03;;;6.40;99.90;;;4.18;100.00;99001.78;10471444;28;20064;-79
2022/11/22 11:59:51;;;;;;;23.03;12.43;;;6.50;99.90;;;4.19;100.00;98992.91;10465952;28;20532;-79
2022/11/22 12:05:25;;;;;;;25.47;12.40;;;6.50;99.90;;;4.17;100.00;98982.53;10505356;28;20497;-79
2022/11/22 12:10:35;;;;;;;27.37;13.27;;;6.50;99.90;;;4.18;100.00;98978.09;10504081;28;20095;-79
2022/11/22 12:16:08;;;;;;;28.10;13.90;;;6.50;99.90;;;4.19;100.00;98977.13;10502040;28;20092;-77
2022/11/22 12:21:21;;;;;;;29.25;13.77;;;6.50;99.90;;;4.23;100.00;98973.22;10465324;28;20063;-79
2022/11/22 12:26:26;;;;;;;31.40;14.00;;;6.60;99.90;;;4.29;100.00;98944.47;10446704;28;20140;-79
2022/11/22 12:31:51;;;;;;;28.87;14.17;;;6.60;99.90;;;4.33;100.00;98945.00;10430796;28;20136;-80
2022/11/22 12:37:13;;;;;;;30.67;13.40;;;6.70;99.90;;;4.32;100.00;98940.72;10496334;28;20065;-79
2022/11/22 12:42:23;;;;;;;26.60;10.83;;;6.60;99.90;;;4.25;100.00;98937.88;10469820;28;20061;-79
2022/11/22 12:47:36;;;;;;;24.73;12.97;;;6.60;99.90;;;4.17;100.00;98943.09;10489462;28;20053;-79
2022/11/22 12:52:50;;;;;;;33.43;13.57;;;6.50;99.90;;;4.14;100.00;98947.84;10520998;28;20571;-79
2022/11/22 12:58:34;;;;;;;31.43;13.47;;;6.40;99.90;;;4.15;100.00;98937.19;10489606;28;20115;-80
2022/11/22 13:04:04;;;;;;;26.67;13.17;;;6.50;99.90;;;4.14;100.00;98932.91;10495286;28;20394;-79
2022/11/22 13:09:16;;;;;;;23.73;12.13;;;6.40;99.90;;;4.15;100.00;98920.59;10503809;28;20057;-79
2022/11/22 13:14:27;;;;;;;29.07;13.33;;;6.50;99.90;;;4.17;100.00;98916.00;10513096;28;20138;-77
2022/11/22 13:19:34;;;;;;;39.47;20.30;;;6.50;99.90;;;4.16;100.00;98909.09;10520638;28;20561;-79
2022/11/22 13:25:05;;;;;;;37.13;17.97;;;6.50;99.90;;;4.14;100.00;98919.78;10473663;28;20061;-79
2022/11/22 13:30:38;;;;;;;33.33;18.10;;;6.40;99.90;;;4.10;100.00;98920.25;10489702;28;20148;-80
2022/11/22 13:35:41;;;;;;;25.87;13.47;;;6.40;99.90;;;4.06;100.00;98921.53;10482631;28;20052;-80
2022/11/22 13:40:51;;;;;;;20.87;11.17;;;6.40;99.90;;;4.02;100.00;98913.97;10509300;28;20057;-79
2022/11/22 13:46:00;;;;;;;22.70;10.50;;;6.30;99.90;;;3.97;100.00;98911.00;10536648;28;20053;-79
2022/11/22 13:51:07;;;;;;;23.07;10.67;;;6.30;99.90;;;3.91;100.00;98909.00;10499586;28;20057;-80
2022/11/22 13:56:19;;;;;;;21.63;10.93;;;6.20;99.90;;;3.85;100.00;98911.41;10501836;28;20093;-80
2022/11/22 14:01:35;;;;;;;26.47;12.93;;;6.20;99.90;;;3.80;100.00;98908.44;10501141;28;20148;-79
2022/11/22 14:06:38;;;;;;;51.33;22.37;;;6.10;99.90;;;3.74;100.00;98904.63;10500883;28;20060;-79
2022/11/22 14:12:11;;;;;;;26.03;13.13;;;6.10;99.90;;;3.69;100.00;98912.97;10497203;28;20057;-79
2022/11/22 14:17:23;;;;;;;23.10;10.70;;;6.00;99.90;;;3.60;100.00;98919.16;10484485;28;20499;-79
2022/11/22 14:22:40;;;;;;;19.67;9.87;;;5.90;99.90;;;3.52;100.00;98915.63;10511193;28;20506;-79
2022/11/22 14:28:01;;;;;;;17.47;9.40;;;5.80;99.90;;;3.50;100.00;98913.19;10534396;28;20065;-79
2022/11/22 14:33:15;;;;;;;21.27;9.57;;;5.80;99.90;;;3.45;100.00;98910.19;10499664;28;20056;-80
2022/11/22 14:38:21;;;;;;;20.63;10.27;;;5.80;99.90;;;3.38;100.00;98909.97;10518308;28;20063;-78
2022/11/22 14:43:36;;;;;;;;;;;5.70;99.90;;;3.35;100.00;98910.25;10496323;28;20065;-80
2022/11/22 14:49:11;;;;;;;15.83;8.77;;;5.70;99.90;;;3.30;100.00;98912.56;10527206;28;19978;-79
2022/11/22 14:54:39;;;;;;;21.77;10.17;;;5.60;99.90;;;3.27;100.00;98914.66;10490858;28;20064;-79
2022/11/22 15:00:18;;;;;;;22.13;10.23;;;5.60;99.90;;;3.27;100.00;98914.66;10463001;28;20107;-79
2022/11/22 15:06:15;;;;;;;23.00;11.60;;;5.60;99.90;;;3.28;100.00;98918.91;10491746;28;20140;-79
2022/11/22 15:11:47;;;;;;;40.47;20.43;;;5.60;99.90;;;3.27;100.00;98902.34;10524942;28;20509;-79
2022/11/22 15:16:53;;;;;;;34.07;17.60;;;5.60;99.90;;;3.27;100.00;98902.34;10499230;28;20060;-79
2022/11/22 15:22:24;;;;;;;21.27;11.70;;;5.60;99.90;;;3.26;100.00;98911.19;10494719;28;20061;-79
2022/11/22 15:27:48;;;;;;;27.27;14.57;;;5.60;99.90;;;3.22;100.00;98905.41;10475230;28;20064;-79
2022/11/22 15:33:34;;;;;;;103.67;57.37;;;5.50;99.90;;;3.25;100.00;98914.81;10470171;28;20077;-79
2022/11/22 15:38:57;;;;;;;25.23;12.80;;;5.60;99.90;;;3.21;100.00;98910.81;10451573;28;20053;-79
2022/11/22 15:44:20;;;;;;;36.67;19.97;;;5.60;99.90;;;3.18;100.00;98908.53;10534220;28;20494;-79
2022/11/22 15:49:44;;;;;;;39.80;17.53;;;5.50;99.90;;;3.11;100.00;98903.03;10519143;28;20068;-79
2022/11/22 15:55:18;;;;;;;31.37;15.77;;;5.50;99.90;;;3.05;100.00;98902.81;10483309;28;20072;-79
2022/11/22 16:00:43;;;;;;;25.30;12.00;;;5.40;99.90;;;3.00;100.00;98897.19;10509890;28;20452;-79
2022/11/22 16:05:47;;;;;;;22.63;10.43;;;5.40;99.90;;;2.95;100.00;98892.41;10471531;28;20417;-79
2022/11/22 16:11:26;;;;;;;19.23;10.03;;;5.30;99.90;;;2.90;100.00;98890.25;10518225;28;20056;-79
2022/11/22 16:16:32;;;;;;;30.90;17.27;;;5.30;99.90;;;2.88;100.00;98879.09;10473624;28;20068;-79
2022/11/22 16:21:35;;;;;;;28.80;14.50;;;5.30;99.90;;;2.86;100.00;98877.56;10480189;28;20480;-79
2022/11/22 16:26:38;;;;;;;25.43;12.37;;;5.30;99.90;;;2.83;100.00;98867.38;10494484;28;20170;-79
2022/11/22 16:31:41;;;;;;;37.77;20.30;;;5.20;99.90;;;2.81;100.00;98885.88;10488907;28;20057;-79
2022/11/22 16:36:44;;;;;;;33.90;19.93;;;5.20;99.90;;;2.76;100.00;98877.66;10492444;28;20065;-79
2022/11/22 16:41:47;;;;;;;20.67;10.70;;;5.20;99.90;;;2.69;100.00;98877.41;10506204;28;20057;-79
2022/11/22 16:46:50;;;;;;;21.80;11.77;;;5.10;99.90;;;2.61;100.00;98879.16;10493767;28;20064;-79
2022/11/22 16:51:53;;;;;;;20.80;10.10;;;5.00;99.90;;;2.56;100.00;98868.28;10536952;28;20061;-79
2022/11/22 16:56:56;;;;;;;26.30;12.87;;;4.90;99.90;;;2.49;100.00;98872.47;10489793;28;20068;-79
2022/11/22 17:01:59;;;;;;;35.63;17.90;;;4.90;99.90;;;2.45;100.00;98869.31;10462527;28;20058;-79
2022/11/22 17:07:02;;;;;;;34.30;15.93;;;4.90;99.90;;;2.42;100.00;98857.34;10496699;28;20061;-79
2022/11/22 17:12:15;;;;;;;26.10;13.40;;;4.80;99.90;;;2.42;100.00;98853.88;10475196;28;20505;-79
2022/11/22 17:17:20;;;;;;;104.13;46.73;;;4.80;99.90;;;2.43;100.00;98858.16;10518891;28;20500;-79
2022/11/22 17:22:22;;;;;;;32.97;17.17;;;4.80;99.90;;;2.46;100.00;98846.53;10502667;28;20057;-79
2022/11/22 17:27:25;;;;;;;25.43;12.50;;;4.80;99.90;;;2.46;100.00;98844.75;10510940;28;20479;-79
2022/11/22 17:32:28;;;;;;;19.87;10.47;;;4.90;99.90;;;2.52;100.00;98835.44;10462047;28;20525;-79
2022/11/22 17:37:31;;;;;;;21.07;9.43;;;4.90;99.90;;;2.57;100.00;98841.88;10459872;28;20064;-79
2022/11/22 17:42:34;;;;;;;18.80;9.60;;;4.90;99.90;;;2.61;100.00;98834.56;10516117;28;20111;-79
2022/11/22 17:47:43;;;;;;;20.73;9.30;;;5.00;99.90;;;2.65;100.00;98830.66;10519600;28;20053;-79
2022/11/22 17:52:46;;;;;;;17.80;10.10;;;5.00;99.90;;;2.68;100.00;98830.34;10493523;28;20464;-79
2022/11/22 17:57:49;;;;;;;18.10;10.20;;;5.00;99.90;;;2.69;100.00;98824.13;10494965;28;20114;-79
2022/11/22 18:02:57;;;;;;;18.10;10.40;;;5.10;99.90;;;2.72;100.00;98817.78;10470615;28;20099;-79
2022/11/22 18:08:07;;;;;;;16.10;8.53;;;5.10;99.90;;;2.73;100.00;98820.25;10518642;28;20053;-79
2022/11/22 18:13:09;;;;;;;13.20;7.27;;;5.10;99.90;;;2.77;100.00;98828.63;10517218;28;20057;-79
2022/11/22 18:18:25;;;;;;;22.23;11.50;;;5.10;99.90;;;2.76;100.00;98827.81;10492929;28;20486;-79
2022/11/22 18:23:49;;;;;;;14.07;8.23;;;5.10;99.90;;;2.79;100.00;98822.25;10513910;28;20049;-79
2022/11/22 18:28:53;;;;;;;13.30;7.47;;;5.20;99.90;;;2.80;100.00;98816.03;10516604;28;20088;-79
2022/11/22 18:34:16;;;;;;;14.50;7.63;;;5.20;99.90;;;2.81;100.00;98803.72;10498924;28;20060;-79
2022/11/22 18:39:20;;;;;;;13.37;6.90;;;5.20;99.90;;;2.81;100.00;98801.94;10494651;28;20061;-79
2022/11/22 18:44:23;;;;;;;12.80;7.40;;;5.20;99.90;;;2.83;99.99;98802.63;10438180;28;20053;-78
2022/11/22 18:49:26;;;;;;;22.27;11.33;;;5.20;99.90;;;2.83;99.83;98799.19;10505941;28;20424;-79
2022/11/22 18:54:29;;;;;;;16.93;10.07;;;5.20;99.90;;;2.84;99.52;98801.63;10498596;28;20061;-79
2022/11/22 18:59:33;;;;;;;37.57;18.03;;;5.30;99.90;;;2.85;99.21;98795.41;10486722;28;20058;-79
2022/11/22 19:04:36;;;;;;;32.53;19.23;;;5.30;99.90;;;2.86;99.26;98785.72;10461797;28;20616;-79
2022/11/22 19:09:39;;;;;;;14.57;7.03;;;5.30;99.90;;;2.86;98.81;98783.09;10477855;28;20531;-79
2022/11/22 19:14:42;;;;;;;14.23;8.60;;;5.30;99.90;;;2.86;98.73;98777.88;10511039;28;20065;-78
2022/11/22 19:19:45;;;;;;;17.67;8.67;;;5.30;99.90;;;2.88;98.43;98774.13;10459771;28;20115;-80
2022/11/22 19:24:48;;;;;;;21.53;11.00;;;5.30;99.90;;;2.90;98.43;98780.03;10523002;28;20057;-82
2022/11/22 19:29:51;;;;;;;27.73;13.60;;;5.30;99.90;;;2.95;98.44;98776.97;10508809;28;20527;-80
2022/11/22 19:34:54;;;;;;;18.70;9.80;;;5.30;99.90;;;2.98;98.53;98774.00;10502366;28;20064;-78
2022/11/22 19:39:57;;;;;;;17.93;9.27;;;5.40;99.90;;;3.02;98.35;98761.41;10512250;28;20063;-78
2022/11/22 19:45:00;;;;;;;20.70;9.83;;;5.40;99.90;;;3.04;98.18;98762.06;10502279;28;20056;-78
2022/11/22 19:50:04;;;;;;;17.73;9.67;;;5.40;99.90;;;3.06;98.20;98753.09;10486829;28;20067;-78
2022/11/22 19:55:07;;;;;;;13.37;7.37;;;5.40;99.90;;;3.08;98.21;98739.78;10491046;28;20057;-78
2022/11/22 20:00:11;;;;;;;15.50;8.90;;;5.50;99.90;;;3.10;98.46;98753.56;10516276;28;20057;-78
2022/11/22 20:05:14;;;;;;;14.47;7.07;;;5.50;99.90;;;3.07;98.71;98741.59;10506432;28;20061;-78
2022/11/22 20:10:17;;;;;;;14.53;7.87;;;5.40;99.90;;;3.09;98.62;98738.81;10502870;28;20057;-78
2022/11/22 20:15:20;;;;;;;14.90;7.73;;;5.40;99.90;;;3.09;98.67;98737.00;10536176;28;20068;-78
2022/11/22 20:20:23;;;;;;;17.23;10.00;;;5.40;99.90;;;3.09;98.88;98742.25;10477469;28;20057;-79
2022/11/22 20:25:26;;;;;;;14.07;6.13;;;5.40;99.90;;;3.14;98.75;98721.63;10487867;28;20093;-79
2022/11/22 20:30:29;;;;;;;17.13;8.27;;;5.50;99.90;;;3.18;98.72;98724.78;10499596;28;20057;-79
2022/11/22 20:35:32;;;;;;;12.10;6.53;;;5.50;99.90;;;3.22;98.56;98723.44;10458264;28;20087;-79
2022/11/22 20:40:35;;;;;;;11.10;6.10;;;5.60;99.90;;;3.24;98.71;98718.88;10530987;28;20149;-79
2022/11/22 20:45:38;;;;;;;13.83;7.53;;;5.60;99.90;;;3.24;98.81;98713.63;10496896;28;20103;-79
2022/11/22 20:50:48;;;;;;;10.97;6.40;;;5.60;99.90;;;3.25;98.88;98704.78;10498465;28;20057;-81
2022/11/22 20:55:51;;;;;;;13.17;6.80;;;5.60;99.90;;;3.25;98.65;98710.03;10492512;28;20084;-80
2022/11/22 21:00:55;;;;;;;12.77;6.87;;;5.60;99.90;;;3.24;98.50;98724.13;10507702;28;20081;-80
2022/11/22 21:06:02;;;;;;;12.77;6.77;;;5.60;99.90;;;3.21;98.53;98712.13;10492471;28;20487;-80
2022/11/22 21:11:27;;;;;;;13.13;6.53;;;5.60;99.90;;;3.20;98.73;98715.75;10484718;28;20127;-80
2022/11/22 21:16:30;;;;;;;25.70;9.97;;;5.50;99.90;;;3.18;99.10;98716.91;10489796;28;20517;-81
2022/11/22 21:21:34;;;;;;;21.13;9.57;;;5.50;99.90;;;3.14;99.54;98734.75;10507617;28;20108;-81
2022/11/22 21:26:37;;;;;;;13.50;7.07;;;5.50;99.90;;;3.11;99.82;98721.09;10485711;28;20065;-81
2022/11/22 21:31:40;;;;;;;13.53;7.63;;;5.50;99.90;;;3.07;100.00;98732.91;10494552;28;20068;-81
2022/11/22 21:36:43;;;;;;;12.07;6.03;;;5.50;99.90;;;3.02;100.00;98725.50;10488214;28;20069;-81
2022/11/22 21:41:46;;;;;;;12.13;6.00;;;5.50;99.90;;;2.98;100.00;98734.66;10482090;28;20061;-81